Time;durP1;ratioP1;P1;durP2;ratioP2;P2;SDS_P1;SDS_P2;PMS_P1;PMS_P2;Temp;Humidity;BMP_temperature;BMP_pressure;BME280_temperature;BME280_humidity;BME280_pressure;Samples;Min_cycle;Max_cycle;Signal;HPM_P1;HPM_P2
2022/01/21 00:02:39;;;;;;;11.68;4.90;;;;;;;1.96;52.34;99995.59;7738659;32;37040;-72
2022/01/21 00:06:56;;;;;;;9.35;4.78;;;;;;;2.01;51.85;99997.66;7737601;32;39237;-72
2022/01/21 00:11:13;;;;;;;11.07;4.37;;;;;;;2.12;51.74;100002.41;7738448;32;40817;-71
2022/01/21 00:15:29;;;;;;;8.13;4.90;;;;;;;1.92;52.87;99999.75;7738397;32;37748;-72
2022/01/21 00:19:48;;;;;;;11.23;4.35;;;;;;;1.84;53.59;99995.41;7738496;32;37364;-71
2022/01/21 00:33:14;;;;;;;8.18;4.20;;;;;;;0.78;60.38;100035.59;7738251;32;38605;-72
2022/01/21 00:37:31;;;;;;;9.32;4.43;;;;;;;0.69;61.96;100022.41;7738289;32;37822;-72
2022/01/21 00:41:59;;;;;;;6.00;4.03;;;;;;;0.81;61.48;100025.31;7738234;32;38958;-73
2022/01/21 00:46:15;;;;;;;9.15;4.47;;;;;;;0.88;61.08;100022.63;7738232;32;40098;-71
2022/01/21 00:50:31;;;;;;;5.35;3.70;;;;;;;1.17;60.70;100023.31;7738121;32;38481;-72
2022/01/21 00:54:48;;;;;;;5.50;4.15;;;;;;;1.19;59.89;100032.84;7738036;32;37109;-72
2022/01/21 00:59:04;;;;;;;6.40;4.00;;;;;;;1.17;60.45;100034.88;7737970;32;39704;-70
2022/01/21 01:03:20;;;;;;;7.60;3.80;;;;;;;0.54;61.99;100056.59;7737735;32;39867;-69
2022/01/21 01:07:37;;;;;;;4.97;3.50;;;;;;;0.69;61.57;100038.50;7737820;32;38632;-72
2022/01/21 01:12:13;;;;;;;6.30;3.80;;;;;;;0.36;62.75;100049.91;7737782;32;37872;-72
2022/01/21 01:21:03;;;;;;;8.65;3.60;;;;;;;0.94;60.16;100046.00;7737731;32;39942;-71
2022/01/21 01:29:55;;;;;;;6.65;3.60;;;;;;;1.54;57.83;100043.41;7737561;32;37247;-71
2022/01/21 01:34:11;;;;;;;4.35;3.40;;;;;;;1.54;57.57;100039.91;7732154;32;167010;-72
2022/01/21 01:52:09;;;;;;;8.13;3.60;;;;;;;1.43;58.62;100062.81;7737069;32;39210;-72
2022/01/21 01:56:30;;;;;;;9.02;3.40;;;;;;;0.92;58.89;100077.59;7736831;32;39993;-72
2022/01/21 02:00:46;;;;;;;7.45;3.50;;;;;;;0.56;60.11;100081.37;7736779;32;38610;-72
2022/01/21 02:05:03;;;;;;;6.05;3.30;;;;;;;1.10;58.62;100056.38;7736468;32;37867;-70
2022/01/21 02:09:19;;;;;;;3.60;3.30;;;;;;;1.56;57.20;100075.44;7736811;32;39116;-71
2022/01/21 02:13:39;;;;;;;4.47;3.47;;;;;;;1.33;57.73;100073.97;7722640;32;40799;-71
2022/01/21 02:22:37;;;;;;;3.30;2.97;;;;;;;0.84;59.19;100050.91;7736261;32;37034;-71
2022/01/21 02:26:54;;;;;;;3.53;3.22;;;;;;;0.85;58.89;100034.63;7736119;32;39523;-72
2022/01/21 02:31:10;;;;;;;6.43;3.47;;;;;;;1.36;57.44;100027.88;7738300;32;39988;-70
2022/01/21 02:35:27;;;;;;;7.15;4.03;;;;;;;1.49;56.85;100035.94;7739786;32;38653;-71
2022/01/21 02:39:44;;;;;;;40.10;16.42;;;;;;;1.68;56.62;100020.84;7739868;32;36948;-71
2022/01/21 02:44:00;;;;;;;7.40;4.68;;;;;;;1.63;56.56;100009.91;7739591;32;39415;-71
2022/01/21 02:48:18;;;;;;;4.62;3.53;;;;;;;1.56;57.06;100037.81;7739580;32;40004;-72
2022/01/21 02:52:42;;;;;;;7.18;3.60;;;;;;;1.63;56.35;100049.41;7739485;32;37295;-71
2022/01/21 02:56:59;;;;;;;6.10;3.62;;;;;;;1.74;56.27;100054.13;7739450;32;37922;-70
2022/01/21 03:01:17;;;;;;;8.57;3.80;;;;;;;1.47;57.02;100070.28;7739388;32;39330;-71
2022/01/21 03:05:35;;;;;;;6.55;3.40;;;;;;;1.72;56.80;100061.59;7739292;32;40023;-72
2022/01/21 03:09:52;;;;;;;6.93;3.95;;;;;;;1.83;56.29;100060.97;7738762;32;38539;-71
2022/01/21 03:14:08;;;;;;;9.50;4.22;;;;;;;1.67;56.60;100056.00;7739326;32;38077;-73
2022/01/21 03:18:24;;;;;;;5.00;3.55;;;;;;;1.38;57.56;100068.81;7739235;32;39340;-72
2022/01/21 03:22:40;;;;;;;6.32;3.50;;;;;;;1.29;57.43;100065.50;7739127;32;39926;-70
2022/01/21 03:26:56;;;;;;;4.45;3.80;;;;;;;0.48;59.01;100078.84;7739020;32;38669;-70
2022/01/21 03:31:13;;;;;;;5.03;3.37;;;;;;;0.50;58.94;100076.78;7739100;32;37138;-72
2022/01/21 03:35:29;;;;;;;4.37;3.40;;;;;;;0.43;57.62;100070.56;7738973;32;39083;-71
2022/01/21 03:39:46;;;;;;;4.95;4.00;;;;;;;0.08;58.77;100068.72;7738778;32;39828;-72
2022/01/21 03:44:02;;;;;;;4.25;3.85;;;;;;;-0.16;59.06;100071.84;7738818;32;38538;-70
2022/01/21 03:48:20;;;;;;;3.83;3.53;;;;;;;0.41;57.30;100080.66;7738794;32;37357;-70
2022/01/21 03:52:36;;;;;;;5.37;3.80;;;;;;;0.70;55.95;100077.69;7738726;32;40135;-70
2022/01/21 03:56:52;;;;;;;6.55;3.78;;;;;;;0.68;55.53;100079.75;7738662;32;40872;-69
2022/01/21 04:01:08;;;;;;;5.87;3.87;;;;;;;-0.10;57.10;100077.25;7738769;32;38137;-71
2022/01/21 04:05:27;;;;;;;3.95;3.58;;;;;;;0.34;56.39;100102.91;7738570;32;37888;-71
2022/01/21 04:09:43;;;;;;;4.72;3.60;;;;;;;-0.48;58.65;100107.03;7738671;32;38722;-71
2022/01/21 04:14:00;;;;;;;3.87;3.58;;;;;;;0.42;55.96;100112.66;7738565;32;39945;-71
2022/01/21 04:18:18;;;;;;;6.00;3.87;;;;;;;-0.04;57.50;100119.34;7738403;32;38184;-72
2022/01/21 04:22:34;;;;;;;5.28;4.43;;;;;;;-0.01;57.52;100136.91;7738484;32;37108;-71
2022/01/21 04:26:50;;;;;;;5.62;3.80;;;;;;;-0.39;58.14;100154.09;7738357;32;39480;-72
2022/01/21 04:31:06;;;;;;;8.60;4.60;;;;;;;-0.18;58.27;100163.16;7738350;32;40423;-71
2022/01/21 04:35:23;;;;;;;5.03;3.90;;;;;;;-0.19;58.48;100169.50;7738026;32;38804;-72
2022/01/21 04:40:16;;;;;;;4.95;4.07;;;;;;;0.22;56.79;100176.88;7738280;32;37112;-71
2022/01/21 04:49:05;;;;;;;3.83;3.40;;;;;;;0.28;56.83;100180.66;7704424;32;40033;-71
2022/01/21 04:53:23;;;;;;;4.78;3.58;;;;;;;0.62;55.55;100182.53;7737135;32;37730;-71
2022/01/21 04:57:39;;;;;;;6.53;4.40;;;;;;;0.54;56.27;100196.09;7738071;32;37326;-72
2022/01/21 05:01:56;;;;;;;6.82;3.97;;;;;;;0.37;56.48;100209.81;7737941;32;40044;-70
2022/01/21 05:06:12;;;;;;;5.87;4.37;;;;;;;0.18;56.80;100200.56;7737756;32;40008;-70
2022/01/21 05:10:28;;;;;;;6.47;4.00;;;;;;;0.77;55.36;100201.19;7737741;32;37945;-70
2022/01/21 05:19:14;;;;;;;8.30;4.12;;;;;;;0.29;56.46;100209.94;7737742;32;39409;-71
2022/01/21 05:23:31;;;;;;;5.37;3.87;;;;;;;-0.01;56.45;100195.88;7737520;32;39878;-70
2022/01/21 05:27:50;;;;;;;5.30;4.15;;;;;;;-0.22;56.52;100210.13;7737484;32;37997;-71
2022/01/21 05:32:07;;;;;;;6.95;4.47;;;;;;;-0.25;55.74;100202.47;7737471;32;37184;-71
2022/01/21 05:36:23;;;;;;;6.72;4.10;;;;;;;0.04;55.55;100206.84;7737403;32;40045;-70
2022/01/21 05:40:41;;;;;;;6.25;4.70;;;;;;;-0.12;55.45;100229.41;7737315;32;39590;-71
2022/01/21 05:49:15;;;;;;;6.70;4.10;;;;;;;0.17;53.99;100247.19;7737115;32;37143;-70
2022/01/21 05:53:31;;;;;;;5.50;4.30;;;;;;;0.13;53.85;100247.75;7737006;32;39022;-71
2022/01/21 05:57:47;;;;;;;7.40;4.20;;;;;;;-0.12;54.39;100250.84;7736874;32;39633;-73
2022/01/21 06:02:04;;;;;;;6.72;4.00;;;;;;;-0.14;54.10;100257.41;7736677;32;38444;-71
2022/01/21 06:06:21;;;;;;;6.37;3.97;;;;;;;-0.22;53.70;100255.69;7739349;32;37370;-69
2022/01/21 06:10:37;;;;;;;9.73;4.40;;;;;;;-0.29;53.83;100262.81;7740134;32;39203;-70
2022/01/21 06:14:53;;;;;;;6.22;4.30;;;;;;;-0.07;53.22;100269.84;7739834;32;39707;-72
2022/01/21 06:19:09;;;;;;;6.25;4.37;;;;;;;-0.19;53.34;100276.72;7739947;32;38487;-71
2022/01/21 06:23:26;;;;;;;7.78;4.43;;;;;;;-0.08;52.89;100283.44;7739909;32;37050;-71
2022/01/21 06:27:45;;;;;;;5.00;4.37;;;;;;;-0.12;52.82;100291.03;7739825;32;39418;-71
2022/01/21 06:32:01;;;;;;;4.50;3.65;;;;;;;-0.29;52.78;100300.31;7739795;32;39939;-72
2022/01/21 06:36:17;;;;;;;6.53;4.25;;;;;;;-0.47;52.61;100322.97;7739637;32;38007;-71
2022/01/21 06:40:33;;;;;;;7.07;4.30;;;;;;;-0.44;52.54;100333.31;7739695;32;36982;-71
2022/01/21 06:44:55;;;;;;;6.05;4.30;;;;;;;-0.37;52.65;100343.28;7739634;32;39414;-71
2022/01/21 06:49:11;;;;;;;9.35;4.37;;;;;;;-0.37;52.37;100359.37;7739493;32;41468;-71
2022/01/21 06:53:27;;;;;;;9.48;4.65;;;;;;;-0.20;52.19;100355.47;7739374;32;39178;-68
2022/01/21 06:57:43;;;;;;;9.05;5.12;;;;;;;-0.16;51.93;100367.47;7739484;32;37165;-70
2022/01/21 07:01:59;;;;;;;11.55;5.57;;;;;;;-0.12;51.89;100375.97;7739485;32;39151;-71
2022/01/21 07:06:15;;;;;;;5.72;4.28;;;;;;;-0.08;51.46;100379.94;7739197;32;39690;-70
2022/01/21 07:10:32;;;;;;;7.78;4.22;;;;;;;-0.09;52.98;100383.63;7739386;32;38408;-70
2022/01/21 07:14:52;;;;;;;6.35;4.85;;;;;;;0.06;50.62;100376.41;7738787;32;37995;-70
2022/01/21 07:19:08;;;;;;;7.40;4.60;;;;;;;-0.07;50.75;100403.88;7739226;32;40064;-72
2022/01/21 07:23:25;;;;;;;6.03;4.43;;;;;;;0.22;49.96;100402.13;7739136;32;39787;-70
2022/01/21 07:27:42;;;;;;;4.40;4.00;;;;;;;0.39;49.17;100386.66;7738934;32;38223;-71
2022/01/21 07:31:58;;;;;;;8.98;4.57;;;;;;;0.54;49.67;100390.13;7739000;32;37328;-69
2022/01/21 07:36:14;;;;;;;7.85;4.85;;;;;;;-0.45;51.28;100385.25;7738914;32;39342;-70
2022/01/21 07:40:30;;;;;;;9.98;4.62;;;;;;;-0.59;52.50;100384.22;7738916;32;40854;-71
2022/01/21 07:44:47;;;;;;;8.30;4.97;;;;;;;-0.23;52.03;100388.00;7738763;32;38825;-70
2022/01/21 07:49:03;;;;;;;13.62;5.60;;;;;;;-1.35;53.98;100376.22;7724988;32;37787;-70
2022/01/21 07:53:19;;;;;;;6.15;4.60;;;;;;;-0.95;54.64;100373.38;7738739;32;39299;-70
2022/01/21 07:57:36;;;;;;;7.87;4.87;;;;;;;-1.00;54.79;100381.09;7738780;32;40817;-71
2022/01/21 08:01:52;;;;;;;7.32;4.40;;;;;;;-0.89;54.50;100388.72;7738673;32;38697;-71
2022/01/21 08:06:08;;;;;;;11.20;4.45;;;;;;;-0.59;54.26;100380.69;7738342;32;37847;-69
2022/01/21 08:10:24;;;;;;;7.00;4.10;;;;;;;-0.19;53.01;100389.28;7738459;32;38217;-69
2022/01/21 08:14:40;;;;;;;4.35;3.95;;;;;;;0.03;51.91;100402.75;7724646;32;39998;-73
2022/01/21 08:18:57;;;;;;;5.10;3.92;;;;;;;-0.05;51.54;100406.37;7738439;32;38763;-69
2022/01/21 08:23:14;;;;;;;4.28;3.85;;;;;;;-0.02;51.65;100406.84;7738544;32;36745;-70
2022/01/21 08:27:30;;;;;;;7.20;3.90;;;;;;;0.34;50.29;100389.06;7737308;32;40136;-72
2022/01/21 08:31:46;;;;;;;4.22;3.58;;;;;;;0.37;49.73;100410.97;7738376;32;40096;-68
2022/01/21 08:36:02;;;;;;;6.07;3.60;;;;;;;-0.05;50.07;100407.19;7738145;32;37895;-71
2022/01/21 08:40:22;;;;;;;3.95;3.62;;;;;;;-0.06;49.85;100400.16;7738097;32;37063;-69
2022/01/21 08:44:38;;;;;;;4.32;3.97;;;;;;;-0.25;50.88;100401.56;7738353;32;39448;-69
2022/01/21 08:48:54;;;;;;;4.55;4.00;;;;;;;-0.12;51.24;100405.44;7738062;32;39839;-69
2022/01/21 08:53:35;;;;;;;4.28;3.87;;;;;;;0.11;50.99;100421.41;7737824;32;37652;-71
2022/01/21 08:57:48;;;;;;;6.25;4.37;;;;;;;0.17;50.16;100418.81;7737969;32;38212;-69
2022/01/21 09:02:04;;;;;;;5.37;3.80;;;;;;;0.59;48.55;100411.00;7737957;32;40040;-69
2022/01/21 09:06:23;;;;;;;8.23;4.20;;;;;;;0.87;48.22;100404.88;7737691;32;39986;-72
2022/01/21 09:10:39;;;;;;;5.95;3.45;;;;;;;0.90;47.68;100416.06;7710758;32;38451;-69
2022/01/21 09:14:55;;;;;;;3.90;3.50;;;;;;;0.52;47.36;100408.25;7710977;32;36972;-70
2022/01/21 09:19:12;;;;;;;5.12;3.33;;;;;;;1.06;47.60;100398.81;7710961;32;39109;-70
2022/01/21 09:23:28;;;;;;;6.45;3.92;;;;;;;1.40;45.87;100405.28;7710814;32;40811;-69
2022/01/21 09:27:44;;;;;;;3.97;3.50;;;;;;;1.53;45.95;100417.13;7710696;32;38686;-70
2022/01/21 09:32:03;;;;;;;3.47;3.17;;;;;;;1.52;46.25;100435.12;7710775;32;37120;-71
2022/01/21 09:36:19;;;;;;;5.47;3.47;;;;;;;2.14;44.85;100460.28;7697103;32;39270;-69
2022/01/21 09:40:39;;;;;;;6.10;3.40;;;;;;;2.12;44.80;100443.53;7710151;32;39953;-71
2022/01/21 09:44:57;;;;;;;3.53;3.22;;;;;;;1.23;43.58;100452.28;7710407;32;37981;-70
2022/01/21 09:53:36;;;;;;;5.25;3.40;;;;;;;1.30;44.80;100453.16;7710297;32;39288;-70
2022/01/21 09:57:55;;;;;;;6.37;3.67;;;;;;;2.07;43.35;100448.69;7710129;32;40652;-69
2022/01/21 10:02:11;;;;;;;6.53;3.87;;;;;;;1.55;44.68;100444.66;7696678;32;38587;-70
2022/01/21 10:06:28;;;;;;;8.50;3.62;;;;;;;0.69;47.10;100442.88;7728772;32;37188;-71
2022/01/21 10:10:44;;;;;;;9.88;4.07;;;;;;;0.65;46.99;100441.63;7736705;32;39274;-70
2022/01/21 10:15:00;;;;;;;4.00;3.60;;;;;;;0.85;47.45;100426.53;7736343;32;40849;-71
2022/01/21 10:19:38;;;;;;;8.82;3.80;;;;;;;0.66;48.62;100436.06;7736369;32;37579;-69
2022/01/21 10:24:02;;;;;;;5.78;3.97;;;;;;;0.30;49.99;100438.75;7736465;32;37229;-69
2022/01/21 10:28:22;;;;;;;4.93;3.80;;;;;;;-0.20;51.62;100443.91;7723409;32;40163;-72
2022/01/21 10:32:41;;;;;;;10.60;4.60;;;;;;;0.75;49.58;100442.94;7735920;32;39927;-70
2022/01/21 10:37:34;;;;;;;6.80;4.30;;;;;;;0.38;50.57;100438.66;7735799;32;38665;-69
2022/01/21 10:41:50;;;;;;;6.05;4.22;;;;;;;-0.31;52.99;100447.88;7735761;32;37805;-68
2022/01/21 10:46:07;;;;;;;6.68;4.47;;;;;;;0.11;52.83;100442.88;7735664;32;39320;-69
2022/01/21 10:50:24;;;;;;;5.90;4.12;;;;;;;0.25;52.12;100436.63;7736442;32;40587;-70
2022/01/21 10:54:43;;;;;;;4.72;3.95;;;;;;;0.39;52.09;100447.53;7739313;32;37877;-69
2022/01/21 10:58:59;;;;;;;6.78;4.82;;;;;;;0.13;52.53;100446.19;7739550;32;36396;-70
2022/01/21 11:03:15;;;;;;;8.57;4.72;;;;;;;-0.01;53.07;100440.66;7739247;32;40122;-69
2022/01/21 11:08:07;;;;;;;7.70;4.40;;;;;;;0.15;53.41;100444.16;7739158;32;40427;-69
2022/01/21 11:12:24;;;;;;;8.73;5.18;;;;;;;0.27;52.87;100417.69;7706900;32;37900;-69
2022/01/21 11:16:44;;;;;;;5.22;4.53;;;;;;;0.64;52.26;100405.91;7739155;32;37862;-70
2022/01/21 11:21:21;;;;;;;9.70;4.62;;;;;;;0.57;52.29;100418.44;7738611;32;40530;-71
2022/01/21 11:25:56;;;;;;;6.55;4.28;;;;;;;1.05;50.83;100389.13;7739191;32;39840;-69
2022/01/21 11:30:12;;;;;;;9.60;4.82;;;;;;;0.51;51.17;100387.81;7739052;32;37824;-69
2022/01/21 11:34:28;;;;;;;11.32;4.70;;;;;;;1.10;50.75;100369.72;7738990;32;37022;-70
2022/01/21 11:38:45;;;;;;;8.57;3.83;;;;;;;1.56;49.35;100376.44;7739175;32;39321;-70
2022/01/21 11:43:03;;;;;;;8.20;3.90;;;;;;;2.19;47.72;100352.91;7739240;32;40910;-70
2022/01/21 11:47:50;;;;;;;5.18;3.62;;;;;;;3.11;46.44;100352.37;7738753;32;38729;-72
2022/01/21 11:52:14;;;;;;;8.15;3.80;;;;;;;2.98;46.08;100337.88;7738909;32;38157;-71
2022/01/21 11:56:46;;;;;;;9.43;3.95;;;;;;;2.67;45.63;100292.72;7738845;32;39371;-71
2022/01/21 12:01:06;;;;;;;7.97;3.83;;;;;;;3.59;45.07;100273.88;7738713;32;40012;-72
2022/01/21 12:05:27;;;;;;;6.68;3.85;;;;;;;3.43;44.84;100299.41;7738439;32;38655;-70
2022/01/21 12:10:03;;;;;;;6.70;3.50;;;;;;;3.13;43.64;100291.84;7738593;32;37887;-70
2022/01/21 12:14:54;;;;;;;9.68;4.00;;;;;;;3.26;44.38;100312.56;7738684;32;39065;-70
2022/01/21 12:19:21;;;;;;;7.55;3.90;;;;;;;3.92;43.90;100305.25;7728796;32;40857;-70
2022/01/21 12:23:44;;;;;;;10.20;3.97;;;;;;;4.60;42.39;100320.78;7725804;32;38651;-70
2022/01/21 12:28:19;;;;;;;8.80;3.65;;;;;;;4.02;43.84;100307.47;7738385;32;37269;-71
2022/01/21 12:32:51;;;;;;;7.07;3.87;;;;;;;4.16;41.84;100311.75;7738319;32;40223;-69
2022/01/21 12:37:09;;;;;;;6.90;3.85;;;;;;;4.34;41.47;100319.13;7738342;32;39606;-71
2022/01/21 12:41:28;;;;;;;5.43;3.00;;;;;;;4.44;40.91;100324.87;7724461;32;37320;-72
2022/01/21 12:46:01;;;;;;;7.55;3.40;;;;;;;4.69;41.57;100332.16;7737828;32;37901;-71
2022/01/21 12:59:22;;;;;;;6.12;3.10;;;;;;;4.40;40.39;100360.59;7726390;32;38425;-71
2022/01/21 13:03:43;;;;;;;8.50;3.62;;;;;;;4.54;39.93;100367.59;7737326;32;37911;-72
2022/01/21 13:08:14;;;;;;;5.22;2.95;;;;;;;4.01;40.83;100362.50;7738041;32;39901;-72
2022/01/21 13:12:46;;;;;;;13.30;4.07;;;;;;;3.91;41.14;100374.53;7737496;32;39877;-71
2022/01/21 13:17:14;;;;;;;6.12;3.50;;;;;;;3.97;40.63;100356.69;7737615;32;38506;-70
2022/01/21 13:21:32;;;;;;;10.48;3.28;;;;;;;3.49;41.27;100348.97;7737741;32;38113;-70
2022/01/21 13:25:48;;;;;;;8.00;3.83;;;;;;;3.35;41.92;100353.56;7737641;32;40219;-71
2022/01/21 13:30:08;;;;;;;5.97;3.22;;;;;;;3.36;41.54;100361.47;7737653;32;40834;-71
2022/01/21 13:34:33;;;;;;;10.77;3.47;;;;;;;3.30;42.33;100364.16;7737617;32;37923;-69
2022/01/21 13:39:10;;;;;;;8.95;3.60;;;;;;;2.63;43.42;100356.09;7737489;32;36840;-71
2022/01/21 13:43:30;;;;;;;8.52;3.65;;;;;;;2.66;43.41;100360.22;7737414;32;39288;-70
2022/01/21 13:47:48;;;;;;;3.60;2.87;;;;;;;2.78;43.04;100351.34;7737247;32;40886;-71
2022/01/21 13:52:05;;;;;;;5.50;3.05;;;;;;;3.38;41.67;100343.19;7737104;32;37996;-70
2022/01/21 13:56:21;;;;;;;8.27;3.53;;;;;;;2.86;40.68;100355.69;7736955;32;37190;-71
2022/01/21 14:00:44;;;;;;;6.03;3.55;;;;;;;2.77;40.80;100356.94;7736878;32;40988;-71
2022/01/21 14:05:02;;;;;;;8.50;3.53;;;;;;;2.98;40.80;100359.44;7736616;32;39901;-71
2022/01/21 14:09:23;;;;;;;4.15;3.50;;;;;;;2.92;40.94;100357.56;7736553;32;37846;-71
2022/01/21 14:13:44;;;;;;;5.82;3.42;;;;;;;3.54;38.87;100351.88;7736730;32;37561;-70
2022/01/21 14:18:01;;;;;;;4.15;3.08;;;;;;;3.12;39.81;100351.31;7723008;32;40085;-70
2022/01/21 14:22:19;;;;;;;6.90;3.28;;;;;;;2.84;39.42;100357.75;7722407;32;39725;-71
2022/01/21 14:26:48;;;;;;;12.48;4.12;;;;;;;3.90;37.05;100345.13;7737803;32;37513;-71
2022/01/21 14:31:24;;;;;;;4.47;3.40;;;;;;;4.43;34.99;100344.81;7739892;32;37675;-72
2022/01/21 14:35:44;;;;;;;;;;;;;;;3.19;36.25;100346.75;7696787;32;39380;-67
2022/01/21 14:40:00;;;;;;;6.62;3.50;;;;;;;5.45;31.69;100330.22;7735106;32;40047;-72
2022/01/21 14:44:31;;;;;;;4.28;2.83;;;;;;;9.08;26.04;100308.00;7725202;32;37836;-72
2022/01/21 14:48:59;;;;;;;5.78;2.67;;;;;;;9.76;24.55;100311.34;7726837;32;37009;-73
2022/01/21 14:53:16;;;;;;;3.42;2.20;;;;;;;10.10;23.07;100305.75;7739070;32;39864;-73
2022/01/21 14:57:34;;;;;;;7.18;2.45;;;;;;;11.82;21.26;100294.75;7738201;32;40022;-72
2022/01/21 15:02:07;;;;;;;4.90;2.22;;;;;;;11.16;20.71;100304.25;7739213;32;37290;-72
2022/01/21 15:06:23;;;;;;;5.43;2.72;;;;;;;10.02;21.38;100304.34;7738186;32;37007;-73
2022/01/21 15:14:58;;;;;;;8.52;3.42;;;;;;;10.24;22.02;100311.63;7738654;32;39960;-72
2022/01/21 15:19:14;;;;;;;7.05;2.92;;;;;;;7.67;25.35;100307.66;7737895;32;36762;-72
2022/01/21 15:23:30;;;;;;;10.40;3.87;;;;;;;6.41;27.50;100313.41;7739112;32;37065;-71
2022/01/21 15:27:47;;;;;;;8.68;3.65;;;;;;;4.61;30.79;100317.06;7737840;32;40102;-71
2022/01/21 15:32:05;;;;;;;10.30;4.53;;;;;;;4.02;31.67;100316.41;7737961;32;39901;-72
2022/01/21 15:36:22;;;;;;;8.75;4.55;;;;;;;4.01;32.41;100314.75;7695070;32;38074;-71
2022/01/21 15:40:39;;;;;;;12.70;4.70;;;;;;;3.10;34.05;100329.16;7691394;32;36772;-71
2022/01/21 15:44:57;;;;;;;10.57;5.05;;;;;;;2.48;35.08;100326.66;7698367;32;39123;-71
2022/01/21 15:49:16;;;;;;;11.68;5.10;;;;;;;2.24;35.84;100334.31;7711073;32;40346;-72
2022/01/21 15:53:32;;;;;;;8.18;4.68;;;;;;;2.06;36.28;100323.28;7711992;32;37179;-71
2022/01/21 15:57:48;;;;;;;9.80;4.95;;;;;;;2.30;35.76;100315.69;7708528;32;37246;-69
2022/01/21 16:02:07;;;;;;;10.00;4.80;;;;;;;1.56;37.37;100317.31;7711611;32;38315;-70
2022/01/21 16:06:24;;;;;;;9.15;4.22;;;;;;;1.82;37.19;100317.41;7729339;32;40064;-72
2022/01/21 16:10:40;;;;;;;9.13;4.00;;;;;;;0.95;40.39;100326.88;7723928;32;38749;-70
2022/01/21 16:15:06;;;;;;;8.63;3.95;;;;;;;1.09;40.96;100328.63;7738340;32;37367;-70
2022/01/21 16:19:22;;;;;;;5.93;3.80;;;;;;;1.45;40.68;100332.13;7737355;32;39296;-71
2022/01/21 16:23:38;;;;;;;9.73;4.43;;;;;;;0.93;42.19;100335.13;7738303;32;39950;-71
2022/01/21 16:27:54;;;;;;;7.28;4.18;;;;;;;0.32;43.22;100346.34;7737596;32;37908;-72
2022/01/21 16:32:10;;;;;;;7.20;4.15;;;;;;;0.64;42.51;100340.66;7737730;32;37154;-72
2022/01/21 16:36:28;;;;;;;5.87;4.30;;;;;;;0.81;41.79;100346.56;7737306;32;40519;-71
2022/01/21 16:40:46;;;;;;;4.97;4.12;;;;;;;1.18;40.55;100340.03;7729460;32;39985;-70
2022/01/21 16:45:04;;;;;;;7.40;4.85;;;;;;;1.46;39.21;100337.31;7737568;32;37900;-71
2022/01/21 16:49:20;;;;;;;8.63;4.85;;;;;;;0.89;39.90;100339.22;7736525;32;37990;-71
2022/01/21 16:53:36;;;;;;;10.18;4.93;;;;;;;1.08;39.52;100336.88;7737606;32;39215;-71
2022/01/21 16:57:53;;;;;;;10.32;5.45;;;;;;;1.09;39.03;100336.69;7737236;32;41121;-71
2022/01/21 17:02:10;;;;;;;10.85;5.60;;;;;;;1.43;39.39;100344.94;7737362;32;37922;-71
2022/01/21 17:06:26;;;;;;;6.85;4.35;;;;;;;1.76;38.69;100347.81;7737244;32;37090;-69
2022/01/21 17:10:42;;;;;;;6.32;4.18;;;;;;;1.74;39.04;100344.47;7723346;32;39323;-71
2022/01/21 17:14:59;;;;;;;9.18;5.28;;;;;;;1.76;37.81;100344.25;7737734;32;39962;-70
2022/01/21 17:19:15;;;;;;;10.40;5.32;;;;;;;1.38;38.65;100345.53;7737058;32;37949;-69
2022/01/21 17:23:31;;;;;;;11.93;4.62;;;;;;;1.91;37.86;100344.94;7737387;32;36875;-71
2022/01/21 17:27:48;;;;;;;11.52;5.60;;;;;;;1.95;37.72;100343.53;7737059;32;40115;-70
2022/01/21 17:32:05;;;;;;;8.73;5.32;;;;;;;1.16;39.13;100336.72;7736733;32;39989;-69
2022/01/21 17:36:21;;;;;;;10.07;4.97;;;;;;;0.67;39.99;100337.59;7736864;32;37657;-70
2022/01/21 17:40:38;;;;;;;7.20;4.60;;;;;;;1.25;39.45;100342.78;7736847;32;37226;-70
2022/01/21 17:44:54;;;;;;;9.40;5.05;;;;;;;1.33;39.35;100323.81;7736822;32;39288;-69
2022/01/21 17:49:11;;;;;;;7.95;4.65;;;;;;;1.39;39.57;100319.50;7736490;32;40770;-69
2022/01/21 17:53:27;;;;;;;9.70;5.35;;;;;;;1.46;39.13;100339.16;7736682;32;38001;-70
2022/01/21 17:57:44;;;;;;;11.23;5.10;;;;;;;1.37;39.52;100351.12;7736400;32;37842;-70
2022/01/21 18:02:00;;;;;;;9.65;4.90;;;;;;;1.43;40.15;100351.16;7738526;32;39280;-70
2022/01/21 18:06:17;;;;;;;7.35;4.30;;;;;;;1.22;39.65;100353.91;7739572;32;40011;-71
2022/01/21 18:10:52;;;;;;;5.60;4.62;;;;;;;1.50;39.39;100340.41;7739663;32;37530;-70
2022/01/21 18:15:09;;;;;;;26.17;10.95;;;;;;;1.41;39.82;100341.63;7739675;32;37108;-72
2022/01/21 18:19:42;;;;;;;14.07;5.60;;;;;;;1.47;39.74;100335.47;7739164;32;39008;-73
2022/01/21 18:23:59;;;;;;;14.57;6.20;;;;;;;1.53;39.59;100339.22;7739054;32;39717;-69
2022/01/21 18:28:16;;;;;;;13.32;4.93;;;;;;;1.09;40.95;100338.53;7739406;32;38607;-70
2022/01/21 18:32:32;;;;;;;9.93;4.53;;;;;;;1.15;40.95;100344.97;7739207;32;37164;-69
2022/01/21 18:36:48;;;;;;;9.23;4.37;;;;;;;1.16;41.10;100354.72;7731222;32;39368;-69
2022/01/21 18:41:05;;;;;;;8.40;3.75;;;;;;;1.06;41.33;100345.13;7739023;32;39974;-68
2022/01/21 18:50:18;;;;;;;6.63;4.37;;;;;;;1.02;41.59;100364.50;7681155;32;36980;-69
2022/01/21 18:54:34;;;;;;;6.15;4.00;;;;;;;1.22;41.54;100367.34;7738824;32;40096;-70
2022/01/21 18:58:50;;;;;;;9.82;4.05;;;;;;;0.82;42.62;100369.72;7739207;32;39895;-71
2022/01/21 19:03:08;;;;;;;14.50;7.07;;;;;;;0.92;42.75;100372.91;7738816;32;37635;-73
2022/01/21 19:07:24;;;;;;;10.70;5.35;;;;;;;0.94;43.21;100365.47;7738583;32;37419;-70
2022/01/21 19:11:40;;;;;;;15.27;6.43;;;;;;;0.83;44.71;100356.09;7738202;32;40049;-73
2022/01/21 19:15:57;;;;;;;10.10;4.43;;;;;;;-0.42;51.59;100376.81;7738059;32;40007;-73
2022/01/21 19:20:15;;;;;;;8.15;4.90;;;;;;;-0.64;54.98;100375.91;7738997;32;38732;-74
2022/01/21 19:24:39;;;;;;;8.20;4.90;;;;;;;-0.37;55.36;100383.50;7738442;32;36465;-73
2022/01/21 19:28:55;;;;;;;6.97;4.65;;;;;;;0.13;53.78;100371.09;7738886;32;40081;-72
2022/01/21 19:33:11;;;;;;;10.38;5.35;;;;;;;-0.09;55.08;100376.41;7738538;32;39622;-73
2022/01/21 19:37:28;;;;;;;8.90;5.20;;;;;;;0.37;53.59;100386.84;7730840;32;38649;-73
2022/01/21 19:41:45;;;;;;;13.05;5.25;;;;;;;0.08;54.63;100394.97;7738058;32;37230;-73
2022/01/21 19:46:06;;;;;;;17.98;5.62;;;;;;;-0.21;57.12;100394.00;7736829;32;39485;-75
2022/01/21 19:50:35;;;;;;;11.23;5.47;;;;;;;0.20;56.72;100384.59;7737811;32;40809;-73
2022/01/21 19:54:51;;;;;;;10.05;5.07;;;;;;;-0.03;58.32;100393.63;7737102;32;38493;-75
2022/01/21 20:12:42;;;;;;;8.80;4.80;;;;;;;-0.11;60.09;100391.03;7739127;32;37856;-73
2022/01/21 20:16:58;;;;;;;8.25;4.40;;;;;;;-0.02;59.61;100405.97;7738640;32;38010;-73
2022/01/21 20:21:16;;;;;;;12.65;4.80;;;;;;;0.21;59.31;100397.81;7738277;32;40182;-73
2022/01/21 20:25:32;;;;;;;11.25;5.53;;;;;;;-0.11;60.33;100380.31;7738345;32;40246;-72
2022/01/21 20:29:48;;;;;;;5.90;4.62;;;;;;;-0.07;60.06;100385.13;7738141;32;38635;-71
2022/01/21 20:34:04;;;;;;;8.73;5.12;;;;;;;-0.27;60.52;100376.00;7738262;32;37419;-72
2022/01/21 20:38:22;;;;;;;12.60;5.95;;;;;;;-0.30;60.45;100373.69;7724413;32;39406;-72
2022/01/21 20:42:38;;;;;;;13.35;5.50;;;;;;;0.13;58.83;100366.56;7738096;32;40757;-72
2022/01/21 20:46:57;;;;;;;14.02;6.68;;;;;;;0.44;57.21;100373.50;7738090;32;38000;-72
2022/01/21 20:51:14;;;;;;;12.32;6.50;;;;;;;0.48;56.73;100364.03;7738207;32;37962;-73
2022/01/21 20:55:30;;;;;;;10.00;5.10;;;;;;;0.58;56.03;100362.91;7737969;32;40149;-74
2022/01/21 20:59:47;;;;;;;7.97;4.72;;;;;;;0.58;56.21;100363.72;7737893;32;40109;-73
2022/01/21 21:04:03;;;;;;;9.60;4.87;;;;;;;0.22;57.02;100364.59;7737743;32;38536;-74
2022/01/21 21:08:22;;;;;;;6.22;4.72;;;;;;;0.17;57.30;100367.88;7737923;32;37062;-73
2022/01/21 21:12:38;;;;;;;12.07;5.25;;;;;;;0.32;57.07;100364.28;7737798;32;40122;-72
2022/01/21 21:26:02;;;;;;;9.30;4.90;;;;;;;0.25;56.95;100364.22;7737559;32;37229;-70
2022/01/21 21:30:59;;;;;;;9.00;4.95;;;;;;;0.39;56.11;100367.06;7737562;32;39562;-72
2022/01/21 22:03:32;;;;;;;10.10;5.35;;;;;;;0.48;54.42;100373.94;7737076;32;37864;-72
2022/01/21 23:02:11;;;;;;;5.75;4.70;;;;;;;0.51;50.44;100378.94;7739626;32;39182;-72
2022/01/21 23:06:29;;;;;;;5.90;4.47;;;;;;;0.09;51.31;100367.16;7739670;32;38171;-72
2022/01/21 23:10:45;;;;;;;7.07;4.40;;;;;;;0.53;49.98;100356.25;7739521;32;38677;-71